createdAt,value
2019-01-11T00:00:55.384Z,10.70
2019-01-11T00:02:02.241Z,12.00
2019-01-11T00:03:09.324Z,11.20
2019-01-11T00:04:16.304Z,9.80
2019-01-11T00:05:23.172Z,9.90
2019-01-11T00:06:30.048Z,11.90
2019-01-11T00:07:36.965Z,13.20
2019-01-11T00:08:43.792Z,10.50
2019-01-11T00:09:50.703Z,11.60
2019-01-11T00:10:57.727Z,11.30
2019-01-11T00:12:04.616Z,9.90
2019-01-11T00:13:11.422Z,12.40
2019-01-11T00:14:18.277Z,11.10
2019-01-11T00:15:25.192Z,10.00
2019-01-11T00:16:32.028Z,11.10
2019-01-11T00:17:38.956Z,11.40
2019-01-11T00:18:45.900Z,9.40
2019-01-11T00:19:52.720Z,8.40
2019-01-11T00:20:59.557Z,10.80
2019-01-11T00:22:06.361Z,12.30
2019-01-11T00:23:13.214Z,9.80
2019-01-11T00:24:20.055Z,14.40
2019-01-11T00:25:26.924Z,11.90
2019-01-11T00:26:33.792Z,11.40
2019-01-11T00:27:40.756Z,11.50
2019-01-11T00:28:47.570Z,10.10
2019-01-11T00:29:54.435Z,9.60
2019-01-11T00:31:01.229Z,12.60
2019-01-11T00:32:08.028Z,11.90
2019-01-11T00:33:14.856Z,10.20
2019-01-11T00:34:27.916Z,9.10
2019-01-11T00:35:34.748Z,10.00
2019-01-11T00:36:41.657Z,11.80
2019-01-11T00:37:48.485Z,11.20
2019-01-11T00:38:55.308Z,13.50
2019-01-11T00:40:02.208Z,9.20
2019-01-11T00:41:09.304Z,9.50
2019-01-11T00:42:16.128Z,8.90
2019-01-11T00:43:23.038Z,9.40
2019-01-11T00:44:29.864Z,9.00
2019-01-11T00:45:36.786Z,11.40
2019-01-11T00:46:43.641Z,10.50
2019-01-11T00:47:50.584Z,10.30
2019-01-11T00:48:57.425Z,8.80
2019-01-11T00:50:04.212Z,8.70
2019-01-11T00:51:11.312Z,8.10
2019-01-11T00:52:18.103Z,8.50
2019-01-11T00:53:24.916Z,11.60
2019-01-11T00:54:31.723Z,9.70
2019-01-11T00:55:38.552Z,13.30
2019-01-11T00:56:45.400Z,11.00
2019-01-11T00:57:52.254Z,9.60
2019-01-11T00:58:59.136Z,9.00
2019-01-11T01:00:06.900Z,10.50
2019-01-11T01:01:13.294Z,10.50
2019-01-11T01:02:19.781Z,8.10
2019-01-11T01:03:26.736Z,12.50
2019-01-11T01:04:33.621Z,10.20
2019-01-11T01:05:40.507Z,9.90
2019-01-11T01:06:47.342Z,11.90
2019-01-11T01:07:54.213Z,10.30
2019-01-11T01:09:01.300Z,14.30
2019-01-11T01:10:08.217Z,9.30
2019-01-11T01:11:15.101Z,9.60
2019-01-11T01:12:21.932Z,13.00
2019-01-11T01:13:28.839Z,10.90
2019-01-11T01:14:36.881Z,8.80
2019-01-11T01:15:43.004Z,11.10
2019-01-11T01:16:49.817Z,11.60
2019-01-11T01:17:56.717Z,11.70
2019-01-11T01:19:03.544Z,9.40
2019-01-11T01:20:10.466Z,8.80
2019-01-11T01:21:17.398Z,9.30
2019-01-11T01:22:24.220Z,10.50
2019-01-11T01:23:31.042Z,9.60
2019-01-11T01:24:38.101Z,8.20
2019-01-11T01:25:45.068Z,10.00
2019-01-11T01:26:51.915Z,10.40
2019-01-11T01:27:58.820Z,9.80
2019-01-11T01:29:05.697Z,9.90
2019-01-11T01:30:12.559Z,9.50
2019-01-11T01:31:19.315Z,10.00
2019-01-11T01:32:26.312Z,10.60
2019-01-11T01:33:33.121Z,9.20
2019-01-11T01:34:39.918Z,10.30
2019-01-11T01:35:46.721Z,11.60
2019-01-11T01:36:53.535Z,10.40
2019-01-11T01:38:00.349Z,13.10
2019-01-11T01:39:07.296Z,11.10
2019-01-11T01:40:14.232Z,10.30
2019-01-11T01:41:21.206Z,11.60
2019-01-11T01:42:28.023Z,10.90
2019-01-11T01:43:34.941Z,10.60
2019-01-11T01:44:41.760Z,11.00
2019-01-11T01:45:48.596Z,9.60
2019-01-11T01:46:55.399Z,11.30
2019-01-11T01:48:02.233Z,9.50
2019-01-11T01:49:09.125Z,10.60
2019-01-11T01:50:15.768Z,10.90
2019-01-11T01:51:22.623Z,12.70
2019-01-11T01:52:29.464Z,10.20
2019-01-11T01:53:36.337Z,12.40
2019-01-11T01:54:43.168Z,9.60
2019-01-11T01:55:50.113Z,9.40
2019-01-11T01:56:56.998Z,12.90
2019-01-11T01:58:03.872Z,10.00
2019-01-11T01:59:10.713Z,11.30
2019-01-11T02:00:17.677Z,10.10
2019-01-11T02:01:24.616Z,12.20
2019-01-11T02:02:31.432Z,10.60
2019-01-11T02:03:38.260Z,11.10
2019-01-11T02:04:45.164Z,10.60
2019-01-11T02:05:51.993Z,12.40
2019-01-11T02:06:58.820Z,11.20
2019-01-11T02:08:05.669Z,11.70
2019-01-11T02:09:12.527Z,10.50
2019-01-11T02:10:19.356Z,10.00
2019-01-11T02:11:26.250Z,10.90
2019-01-11T02:12:33.152Z,10.50
2019-01-11T02:13:40.013Z,9.80
2019-01-11T02:14:46.899Z,10.00
2019-01-11T02:15:53.689Z,10.10
2019-01-11T02:17:00.528Z,11.30
2019-01-11T02:18:07.584Z,12.70
2019-01-11T02:19:14.441Z,14.10
2019-01-11T02:20:21.291Z,11.80
2019-01-11T02:21:28.196Z,12.90
2019-01-11T02:22:35.068Z,12.30
2019-01-11T02:23:41.965Z,12.00
2019-01-11T02:24:48.765Z,11.70
2019-01-11T02:25:55.730Z,11.10
2019-01-11T02:27:02.544Z,11.40
2019-01-11T02:28:09.380Z,14.00
2019-01-11T02:29:16.194Z,13.00
2019-01-11T02:30:23.041Z,11.40
2019-01-11T02:31:29.892Z,12.20
2019-01-11T02:32:36.748Z,13.20
2019-01-11T02:33:43.648Z,10.10
2019-01-11T02:34:50.432Z,10.80
2019-01-11T02:35:58.159Z,12.60
2019-01-11T02:37:04.436Z,12.20
2019-01-11T02:38:11.317Z,11.00
2019-01-11T02:39:18.169Z,11.30
2019-01-11T02:40:24.989Z,12.20
2019-01-11T02:41:31.798Z,11.00
2019-01-11T02:42:38.743Z,11.90
2019-01-11T02:43:45.643Z,11.80
2019-01-11T02:44:52.512Z,14.70
2019-01-11T02:45:59.364Z,11.30
2019-01-11T02:47:06.294Z,12.70
2019-01-11T02:48:13.139Z,13.30
2019-01-11T02:49:20.058Z,11.50
2019-01-11T02:50:26.861Z,13.50
2019-01-11T02:51:33.552Z,11.40
2019-01-11T02:52:40.480Z,10.20
2019-01-11T02:53:47.413Z,13.50
2019-01-11T02:54:54.272Z,11.90
2019-01-11T02:56:01.140Z,11.00
2019-01-11T02:57:08.020Z,10.70
2019-01-11T02:58:14.857Z,11.00
2019-01-11T02:59:21.778Z,13.70
2019-01-11T03:00:28.597Z,13.60
2019-01-11T03:01:35.410Z,12.30
2019-01-11T03:02:42.245Z,11.00
2019-01-11T03:03:49.185Z,15.70
2019-01-11T03:04:56.233Z,13.00
2019-01-11T03:06:03.093Z,11.30
2019-01-11T03:07:10.024Z,11.30
2019-01-11T03:08:16.933Z,17.90
2019-01-11T03:09:23.823Z,11.70
2019-01-11T03:10:30.620Z,14.80
2019-01-11T03:11:37.436Z,12.40
2019-01-11T03:12:44.371Z,11.10
2019-01-11T03:13:51.336Z,11.50
2019-01-11T03:14:58.212Z,14.10
2019-01-11T03:16:05.004Z,12.30
2019-01-11T03:17:11.857Z,14.20
2019-01-11T03:18:18.724Z,12.90
2019-01-11T03:19:25.656Z,12.80
2019-01-11T03:20:32.476Z,11.90
2019-01-11T03:21:39.370Z,13.40
2019-01-11T03:22:46.168Z,14.40
2019-01-11T03:23:53.008Z,14.80
2019-01-11T03:24:59.853Z,14.20
2019-01-11T03:26:06.899Z,12.70
2019-01-11T03:27:13.785Z,14.20
2019-01-11T03:28:20.691Z,10.30
2019-01-11T03:29:27.497Z,12.50
2019-01-11T03:30:34.377Z,13.30
2019-01-11T03:31:41.222Z,13.80
2019-01-11T03:32:48.143Z,13.40
2019-01-11T03:33:54.992Z,12.60
2019-01-11T03:35:01.898Z,10.80
2019-01-11T03:36:08.757Z,12.60
2019-01-11T03:37:15.651Z,11.00
2019-01-11T03:38:22.509Z,10.60
2019-01-11T03:39:29.436Z,11.60
2019-01-11T03:40:36.339Z,15.20
2019-01-11T03:41:43.213Z,10.70
2019-01-11T03:42:50.270Z,13.70
2019-01-11T03:43:57.161Z,14.90
2019-01-11T03:45:03.972Z,12.10
2019-01-11T03:46:10.758Z,10.50
2019-01-11T03:47:17.609Z,9.80
2019-01-11T03:48:24.545Z,10.60
2019-01-11T03:49:31.417Z,12.60
2019-01-11T03:50:38.301Z,12.80
2019-01-11T03:51:45.173Z,13.90
2019-01-11T03:52:52.051Z,10.90
2019-01-11T03:53:58.877Z,12.40
2019-01-11T03:55:05.706Z,13.90
2019-01-11T03:56:12.696Z,10.40
2019-01-11T03:57:19.625Z,14.90
2019-01-11T03:58:26.492Z,13.00
2019-01-11T03:59:33.365Z,11.20
2019-01-11T04:00:40.184Z,13.90
2019-01-11T04:01:47.136Z,12.40
2019-01-11T04:02:54.014Z,11.00
2019-01-11T04:04:01.935Z,10.20
2019-01-11T04:05:07.918Z,11.30
2019-01-11T04:06:14.896Z,13.10
2019-01-11T04:07:21.772Z,11.10
2019-01-11T04:08:28.630Z,14.10
2019-01-11T04:09:35.553Z,12.60
2019-01-11T04:10:42.449Z,12.00
2019-01-11T04:11:49.444Z,14.50
2019-01-11T04:12:56.362Z,10.80
2019-01-11T04:14:03.201Z,13.40
2019-01-11T04:15:10.213Z,11.90
2019-01-11T04:16:16.976Z,13.20
2019-01-11T04:17:23.825Z,11.40
2019-01-11T04:18:30.808Z,13.70
2019-01-11T04:19:37.849Z,11.70
2019-01-11T04:20:44.889Z,12.80
2019-01-11T04:21:51.799Z,12.60
2019-01-11T04:22:58.640Z,13.40
2019-01-11T04:24:05.595Z,11.00
2019-01-11T04:25:12.477Z,12.80
2019-01-11T04:26:19.577Z,10.70
2019-01-11T04:27:26.410Z,12.00
2019-01-11T04:28:33.243Z,14.00
2019-01-11T04:29:40.080Z,14.00
2019-01-11T04:30:46.907Z,12.60
2019-01-11T04:31:53.827Z,14.70
2019-01-11T04:33:00.701Z,16.60
2019-01-11T04:34:07.531Z,12.00
2019-01-11T04:35:14.375Z,14.40
2019-01-11T04:36:28.654Z,13.90
2019-01-11T04:37:35.578Z,13.60
2019-01-11T04:38:42.639Z,17.00
2019-01-11T04:39:49.523Z,10.30
2019-01-11T04:40:56.462Z,13.70
2019-01-11T04:42:03.377Z,12.30
2019-01-11T04:43:10.342Z,15.90
2019-01-11T04:44:17.296Z,15.80
2019-01-11T04:45:24.179Z,12.00
2019-01-11T04:46:31.177Z,16.30
2019-01-11T04:47:38.084Z,15.50
2019-01-11T04:48:45.088Z,14.10
2019-01-11T04:49:52.030Z,14.60
2019-01-11T04:50:59.208Z,16.40
2019-01-11T04:52:06.263Z,15.10
2019-01-11T04:53:13.207Z,16.30
2019-01-11T04:54:20.106Z,15.10
2019-01-11T04:55:27.089Z,21.30
2019-01-11T04:56:34.066Z,18.90
2019-01-11T04:57:41.154Z,19.30
2019-01-11T04:58:48.060Z,14.50
2019-01-11T04:59:54.813Z,16.10
2019-01-11T05:01:01.605Z,18.00
2019-01-11T05:02:09.432Z,16.10
2019-01-11T05:03:15.281Z,14.00
2019-01-11T05:04:22.106Z,14.90
2019-01-11T05:05:28.922Z,15.90
2019-01-11T05:06:35.671Z,16.30
2019-01-11T05:07:42.490Z,15.20
2019-01-11T05:08:49.279Z,13.80
2019-01-11T05:09:56.049Z,14.10
2019-01-11T05:11:02.868Z,16.70
2019-01-11T05:12:09.633Z,14.90
2019-01-11T05:13:16.382Z,16.80
2019-01-11T05:14:23.520Z,17.80
2019-01-11T05:15:30.383Z,19.20
2019-01-11T05:16:39.584Z,16.50
2019-01-11T05:17:43.923Z,13.10
2019-01-11T05:18:50.777Z,15.80
2019-01-11T05:19:57.527Z,13.00
2019-01-11T05:21:04.283Z,19.40
2019-01-11T05:22:11.057Z,16.30
2019-01-11T05:23:17.828Z,16.70
2019-01-11T05:24:24.596Z,20.50
2019-01-11T05:25:31.368Z,16.10
2019-01-11T05:26:38.232Z,14.90
2019-01-11T05:27:45.004Z,17.00
2019-01-11T05:28:51.812Z,18.90
2019-01-11T05:29:58.604Z,21.00
2019-01-11T05:31:05.371Z,18.90
2019-01-11T05:32:12.219Z,20.30
2019-01-11T05:33:19.231Z,18.90
2019-01-11T05:34:26.134Z,19.00
2019-01-11T05:35:32.908Z,19.40
2019-01-11T05:36:39.679Z,18.80
2019-01-11T05:37:46.535Z,16.80
2019-01-11T05:38:53.304Z,15.60
2019-01-11T05:40:00.039Z,19.90
2019-01-11T05:41:07.233Z,16.30
2019-01-11T05:42:14.102Z,22.70
2019-01-11T05:43:20.858Z,18.80
2019-01-11T05:44:27.633Z,18.90
2019-01-11T05:45:34.372Z,17.00
2019-01-11T05:46:41.122Z,24.80
2019-01-11T05:47:47.912Z,18.50
2019-01-11T05:48:54.694Z,17.80
2019-01-11T05:50:01.530Z,18.70
2019-01-11T05:51:09.152Z,20.00
2019-01-11T05:52:15.408Z,19.90
2019-01-11T05:53:22.165Z,22.40
2019-01-11T05:54:28.901Z,21.50
2019-01-11T05:55:35.694Z,21.10
2019-01-11T05:56:42.677Z,22.30
2019-01-11T05:57:49.465Z,23.10
2019-01-11T05:58:56.344Z,19.00
2019-01-11T06:00:03.070Z,22.70
2019-01-11T06:01:09.845Z,20.00
2019-01-11T06:02:16.848Z,19.40
2019-01-11T06:03:23.600Z,19.50
2019-01-11T06:04:30.508Z,21.50
2019-01-11T06:05:37.396Z,18.90
2019-01-11T06:06:44.161Z,19.10
2019-01-11T06:07:51.147Z,20.40
2019-01-11T06:08:58.261Z,21.60
2019-01-11T06:10:05.016Z,19.40
2019-01-11T06:11:12.028Z,21.60
2019-01-11T06:12:22.363Z,22.50
2019-01-11T06:13:25.652Z,23.10
2019-01-11T06:14:32.424Z,19.40
2019-01-11T06:15:39.156Z,18.90
2019-01-11T06:16:45.932Z,22.60
2019-01-11T06:17:52.677Z,22.20
2019-01-11T06:18:59.448Z,19.20
2019-01-11T06:20:06.213Z,20.90
2019-01-11T06:21:13.297Z,19.40
2019-01-11T06:22:20.064Z,21.30
2019-01-11T06:23:26.824Z,18.00
2019-01-11T06:24:33.614Z,21.20
2019-01-11T06:25:40.382Z,18.90
2019-01-11T06:26:47.148Z,21.80
2019-01-11T06:27:53.898Z,21.20
2019-01-11T06:29:00.635Z,17.70
2019-01-11T06:30:07.437Z,24.00
2019-01-11T06:31:15.204Z,19.80
2019-01-11T06:32:21.509Z,21.20
2019-01-11T06:33:28.280Z,20.50
2019-01-11T06:34:35.036Z,23.20
2019-01-11T06:35:41.762Z,18.80
2019-01-11T06:36:48.539Z,19.10
2019-01-11T06:37:55.304Z,22.10
2019-01-11T06:39:01.947Z,21.00
2019-01-11T06:40:08.930Z,23.10
2019-01-11T06:41:15.860Z,19.50
2019-01-11T06:42:22.677Z,20.70
2019-01-11T06:43:29.372Z,21.40
2019-01-11T06:44:38.984Z,22.20
2019-01-11T06:45:42.881Z,22.10
2019-01-11T06:46:49.703Z,21.40
2019-01-11T06:47:56.485Z,22.00
2019-01-11T06:49:03.252Z,23.00
2019-01-11T06:50:10.113Z,18.20
2019-01-11T06:51:17.234Z,18.80
2019-01-11T06:52:24.013Z,22.00
2019-01-11T06:53:30.795Z,22.10
2019-01-11T06:54:37.640Z,19.90
2019-01-11T06:55:44.372Z,21.10
2019-01-11T06:56:51.145Z,20.90
2019-01-11T11:35:48.207Z,21.60
2019-01-11T11:36:55.162Z,20.30
2019-01-11T11:38:02.211Z,20.30
2019-01-11T11:39:09.053Z,21.40
2019-01-11T11:40:16.066Z,19.10
2019-01-11T11:41:23.031Z,22.00
2019-01-11T11:42:29.860Z,22.10
2019-01-11T11:43:36.772Z,19.20
2019-01-11T11:44:43.609Z,18.50
2019-01-11T11:45:50.587Z,19.40
2019-01-11T11:46:57.493Z,20.40
2019-01-11T11:48:04.318Z,23.20
2019-01-11T11:49:16.040Z,16.50
2019-01-11T11:50:18.488Z,20.20
2019-01-11T11:51:25.328Z,18.70
2019-01-11T11:52:32.199Z,18.00
2019-01-11T11:53:39.049Z,20.60
2019-01-11T11:54:46.144Z,20.50
2019-01-11T11:57:00.262Z,20.60
2019-01-11T11:58:08.551Z,18.40
2019-01-11T11:59:14.079Z,19.80
2019-01-11T12:00:21.125Z,16.40
2019-01-11T12:01:28.260Z,18.00
2019-01-11T12:02:35.251Z,19.40
2019-01-11T12:03:42.251Z,17.20
2019-01-11T12:04:49.154Z,17.50
2019-01-11T12:05:56.033Z,19.60
2019-01-11T12:07:02.938Z,16.60
2019-01-11T12:08:09.847Z,17.70
2019-01-11T12:09:16.669Z,17.70
2019-01-11T12:10:23.492Z,19.60
2019-01-11T12:11:30.451Z,16.00
2019-01-11T12:12:37.318Z,17.90
2019-01-11T12:13:44.240Z,16.50
2019-01-11T12:14:51.052Z,19.20
2019-01-11T12:15:57.850Z,19.70
2019-01-11T12:17:05.944Z,20.30
2019-01-11T12:18:11.412Z,18.00
2019-01-11T12:19:18.289Z,20.10
2019-01-11T12:20:25.177Z,16.10
2019-01-11T12:21:47.485Z,16.10
2019-01-11T12:22:48.445Z,19.00
2019-01-11T12:23:55.067Z,17.80
2019-01-11T12:25:02.088Z,17.30
2019-01-11T12:26:11.156Z,18.50
2019-01-11T12:27:15.770Z,20.70
2019-01-11T12:28:22.986Z,18.20
2019-01-11T12:29:29.898Z,15.90
2019-01-11T12:30:36.978Z,19.70
2019-01-11T12:31:43.935Z,18.00
2019-01-11T12:32:52.415Z,18.30
2019-01-11T12:33:58.475Z,18.00
2019-01-11T12:35:04.838Z,14.90
2019-01-11T12:36:11.702Z,16.30
2019-01-11T12:37:18.852Z,15.40
2019-01-11T12:38:29.216Z,17.10
2019-01-11T12:39:32.636Z,13.60
2019-01-11T12:40:39.389Z,13.40
2019-01-11T12:41:46.396Z,21.30
2019-01-11T12:42:53.391Z,21.60
2019-01-11T12:44:00.276Z,20.30
2019-01-11T12:45:07.403Z,23.80
2019-01-11T12:46:14.450Z,27.40
2019-01-11T12:47:21.269Z,21.30
2019-01-11T12:48:28.097Z,27.60
2019-01-11T12:49:35.015Z,20.90
2019-01-11T12:50:41.818Z,22.40
2019-01-11T12:51:53.986Z,22.70
2019-01-11T12:52:55.668Z,26.70
2019-01-11T12:54:02.522Z,24.40
2019-01-11T12:55:09.352Z,23.30
2019-01-11T12:56:16.288Z,25.90
2019-01-11T12:57:23.153Z,25.70
2019-01-11T12:58:29.988Z,24.30
2019-01-11T12:59:36.780Z,22.70
2019-01-11T13:00:43.598Z,22.50
2019-01-11T13:01:50.768Z,28.70
2019-01-11T13:02:57.613Z,20.90
2019-01-11T13:04:04.458Z,23.40
2019-01-11T13:05:11.274Z,24.30
2019-01-11T13:06:18.392Z,21.10
2019-01-11T13:07:25.319Z,19.30
2019-01-11T13:08:32.130Z,21.30
2019-01-11T13:09:38.937Z,20.80
2019-01-11T13:10:45.771Z,21.60
2019-01-11T13:11:52.701Z,21.10
2019-01-11T13:12:59.569Z,19.20
2019-01-11T13:14:06.417Z,19.50
2019-01-11T13:15:13.201Z,19.00
2019-01-11T13:16:19.975Z,20.70
2019-01-11T13:17:26.785Z,19.90
2019-01-11T13:18:33.669Z,19.80
2019-01-11T13:19:40.623Z,22.50
2019-01-11T13:20:47.424Z,21.70
2019-01-11T13:22:00.398Z,20.20
2019-01-11T13:23:01.218Z,21.10
2019-01-11T13:24:08.140Z,20.30
2019-01-11T13:25:15.026Z,19.60
2019-01-11T13:26:21.909Z,21.20
2019-01-11T13:27:28.756Z,21.40
2019-01-11T13:28:35.634Z,20.70
2019-01-11T13:29:42.494Z,22.40
2019-01-11T13:30:49.268Z,24.50
2019-01-11T13:31:56.048Z,24.90
2019-01-11T13:33:02.886Z,24.90
2019-01-11T13:34:09.799Z,24.40
2019-01-11T13:35:16.600Z,22.00
2019-01-11T13:36:23.564Z,23.20
2019-01-11T13:37:30.464Z,23.70
2019-01-11T13:38:37.544Z,21.90
2019-01-11T13:39:44.533Z,22.40
2019-01-11T13:40:51.371Z,25.10
2019-01-11T13:41:58.240Z,23.50
2019-01-11T13:43:05.123Z,23.90
2019-01-11T13:44:11.949Z,23.30
2019-01-11T13:45:18.765Z,21.70
2019-01-11T13:46:25.580Z,22.50
2019-01-11T13:47:33.336Z,24.80
2019-01-11T13:48:39.392Z,19.40
2019-01-11T13:49:46.272Z,25.00
2019-01-11T13:50:53.209Z,22.10
2019-01-11T13:52:07.187Z,22.60
2019-01-11T13:53:07.003Z,22.30
2019-01-11T13:54:13.635Z,24.20
2019-01-11T13:55:20.484Z,23.00
2019-01-11T13:56:27.365Z,21.80
2019-01-11T13:57:34.188Z,23.90
2019-01-11T13:58:41.117Z,24.00
2019-01-11T13:59:47.948Z,24.30
2019-01-11T14:00:54.725Z,22.90
2019-01-11T14:02:01.513Z,26.40
2019-01-11T14:03:08.501Z,21.60
2019-01-11T14:04:15.316Z,18.90
2019-01-11T14:05:22.059Z,22.10
2019-01-11T14:06:28.956Z,22.80
2019-01-11T14:07:35.765Z,23.10
2019-01-11T14:08:42.534Z,24.40
2019-01-11T14:09:49.329Z,23.20
2019-01-11T14:10:56.085Z,24.00
2019-01-11T14:12:02.852Z,19.70
2019-01-11T14:13:09.747Z,18.70
2019-01-11T14:14:16.557Z,19.50
2019-01-11T14:15:23.331Z,20.30
2019-01-11T14:16:30.136Z,18.70
2019-01-11T14:17:36.993Z,18.20
2019-01-11T14:18:43.824Z,19.40
2019-01-11T14:19:50.588Z,19.10
2019-01-11T14:20:57.350Z,21.10
2019-01-11T14:22:04.192Z,18.80
2019-01-11T14:23:11.059Z,19.50
2019-01-11T14:24:17.849Z,18.60
2019-01-11T14:25:24.600Z,21.00
2019-01-11T14:26:31.355Z,20.50
2019-01-11T14:27:38.170Z,20.10
2019-01-11T14:28:45.011Z,19.70
2019-01-11T14:29:51.764Z,22.20
2019-01-11T14:30:58.536Z,21.00
2019-01-11T14:32:05.343Z,24.60
2019-01-11T14:33:12.112Z,22.10
2019-01-11T14:34:18.928Z,18.90
2019-01-11T14:35:25.776Z,18.80
2019-01-11T14:36:32.540Z,19.50
2019-01-11T14:37:39.302Z,19.60
2019-01-11T14:38:46.184Z,22.10
2019-01-11T14:39:52.932Z,19.40
2019-01-11T14:40:59.712Z,20.30
2019-01-11T14:42:06.508Z,22.40
2019-01-11T14:43:13.301Z,18.90
2019-01-11T14:44:20.122Z,24.40
2019-01-11T14:45:26.980Z,21.10
2019-01-11T14:46:33.721Z,19.50
2019-01-11T14:47:40.493Z,18.30
2019-01-11T14:48:47.333Z,18.90
2019-01-11T14:49:54.120Z,22.10
2019-01-11T14:51:00.860Z,20.30
2019-01-11T14:52:07.769Z,20.40
2019-01-11T14:53:14.592Z,17.20
2019-01-11T14:54:21.427Z,18.80
2019-01-11T14:55:28.192Z,18.50
2019-01-11T14:56:35.316Z,17.90
2019-01-11T14:57:42.098Z,21.10
2019-01-11T14:58:48.951Z,20.60
2019-01-11T14:59:55.798Z,20.30
2019-01-11T15:01:02.750Z,19.50
2019-01-11T15:02:09.449Z,19.80
2019-01-11T15:03:16.330Z,22.00
2019-01-11T15:04:23.169Z,18.30
2019-01-11T15:05:29.962Z,16.90
2019-01-11T15:06:36.820Z,17.80
2019-01-11T15:07:43.633Z,17.20
2019-01-11T15:08:50.499Z,16.50
2019-01-11T15:09:57.289Z,19.00
2019-01-11T15:11:04.056Z,18.30
2019-01-11T15:12:10.895Z,16.60
2019-01-11T15:13:17.709Z,19.20
2019-01-11T15:14:24.583Z,20.20
2019-01-11T15:15:31.397Z,16.00
2019-01-11T15:16:38.178Z,18.90
2019-01-11T15:17:45.004Z,16.70
2019-01-11T15:18:51.841Z,18.10
2019-01-11T15:19:58.642Z,19.40
2019-01-11T15:21:05.496Z,21.00
2019-01-11T15:22:12.345Z,17.70
2019-01-11T15:23:19.139Z,18.40
2019-01-11T15:24:25.977Z,18.40
2019-01-11T15:25:33.953Z,17.80
2019-01-11T15:26:39.717Z,19.50
2019-01-11T15:27:46.616Z,19.10
2019-01-11T15:28:53.422Z,21.00
2019-01-11T15:30:00.309Z,18.10
2019-01-11T15:31:07.031Z,18.90
2019-01-11T15:32:13.787Z,19.50
2019-01-11T15:33:20.574Z,21.30
2019-01-11T15:34:27.382Z,16.50
2019-01-11T15:35:34.213Z,18.60
2019-01-11T15:36:41.109Z,16.80
2019-01-11T15:37:47.972Z,19.20
2019-01-11T15:38:54.853Z,18.10
2019-01-11T15:40:01.689Z,15.00
2019-01-11T15:41:08.708Z,22.20
2019-01-11T15:42:15.604Z,16.20
2019-01-11T15:43:22.423Z,17.20
2019-01-11T15:44:29.205Z,17.20
2019-01-11T15:45:36.040Z,15.40
2019-01-11T15:46:42.877Z,17.00
2019-01-11T15:47:49.640Z,14.90
2019-01-11T15:48:56.471Z,16.60
2019-01-11T15:50:03.401Z,20.50
2019-01-11T15:51:10.280Z,19.00
2019-01-11T15:52:17.114Z,18.50
2019-01-11T15:53:24.081Z,17.60
2019-01-11T15:54:30.969Z,20.70
2019-01-11T15:55:37.826Z,15.70
2019-01-11T15:56:44.700Z,18.20
2019-01-11T15:57:51.503Z,19.50
2019-01-11T15:58:58.308Z,18.20
2019-01-11T16:00:05.191Z,15.90
2019-01-11T16:01:12.353Z,17.90
2019-01-11T16:02:19.177Z,13.70
2019-01-11T16:03:26.061Z,16.00
2019-01-11T16:04:34.333Z,14.90
2019-01-11T16:05:39.741Z,15.80
2019-01-11T16:06:46.684Z,17.60
2019-01-11T16:07:53.639Z,14.30
2019-01-11T16:09:00.517Z,16.30
2019-01-11T16:10:11.921Z,16.30
2019-01-11T16:11:18.965Z,14.70
2019-01-11T16:12:25.878Z,16.80
2019-01-11T16:13:32.793Z,24.10
2019-01-11T16:14:39.649Z,16.30
2019-01-11T16:15:46.924Z,18.10
2019-01-11T16:16:53.508Z,16.80
2019-01-11T16:18:00.171Z,18.40
2019-01-11T16:19:07.308Z,16.60
2019-01-11T16:20:14.125Z,17.00
2019-01-11T16:21:21.077Z,16.90
2019-01-11T16:22:27.880Z,19.50
2019-01-11T16:23:34.699Z,18.00
2019-01-11T16:24:41.583Z,15.40
2019-01-11T16:25:48.537Z,15.70
2019-01-11T16:26:55.389Z,15.00
2019-01-11T16:28:02.241Z,14.80
2019-01-11T16:29:09.076Z,16.90
2019-01-11T16:30:15.982Z,13.80
2019-01-11T16:31:22.839Z,14.10
2019-01-11T16:32:30.649Z,18.20
2019-01-11T16:33:36.474Z,14.80
2019-01-11T16:34:43.412Z,15.80
2019-01-11T16:35:50.131Z,14.50
2019-01-11T16:36:57.029Z,16.60
2019-01-11T16:38:03.792Z,17.90
2019-01-11T16:39:10.620Z,15.70
2019-01-11T16:40:17.452Z,12.80
2019-01-11T16:41:24.217Z,13.90
2019-01-11T16:42:31.076Z,14.30
2019-01-11T16:43:37.825Z,14.40
2019-01-11T16:44:44.564Z,15.40
2019-01-11T16:45:51.339Z,14.50
2019-01-11T16:46:58.160Z,14.60
2019-01-11T16:48:04.884Z,13.40
2019-01-11T16:49:11.660Z,15.90
2019-01-11T16:50:18.464Z,16.10
2019-01-11T16:51:25.224Z,16.80
2019-01-11T16:52:32.052Z,16.60
2019-01-11T16:53:38.822Z,15.50
2019-01-11T16:54:45.576Z,17.80
2019-01-11T16:55:52.323Z,16.50
2019-01-11T16:56:59.072Z,18.50
2019-01-11T16:58:05.819Z,16.00
2019-01-11T16:59:12.681Z,14.30
2019-01-11T17:00:19.522Z,15.00
2019-01-11T17:01:26.316Z,13.30
2019-01-11T17:02:36.584Z,16.50
2019-01-11T17:03:39.863Z,14.60
2019-01-11T17:04:46.650Z,16.60
2019-01-11T17:05:53.441Z,21.90
2019-01-11T17:07:00.221Z,19.40
2019-01-11T17:08:07.073Z,15.70
2019-01-11T17:09:13.817Z,11.00
2019-01-11T17:10:20.596Z,12.00
2019-01-11T17:11:27.420Z,12.30
2019-01-11T17:12:41.584Z,11.50
2019-01-11T17:13:41.240Z,11.60
2019-01-11T17:14:47.984Z,10.90
2019-01-11T17:15:54.728Z,11.60
2019-01-11T17:17:01.489Z,14.50
2019-01-11T17:18:08.328Z,16.70
2019-01-11T17:19:15.091Z,15.00
2019-01-11T17:20:21.875Z,17.80
2019-01-11T17:21:28.632Z,14.90
2019-01-11T17:22:35.529Z,13.00
2019-01-11T17:23:42.304Z,11.50
2019-01-11T17:24:49.068Z,14.70
2019-01-11T17:25:55.873Z,12.00
2019-01-11T17:27:02.676Z,11.20
2019-01-11T17:28:09.458Z,11.20
2019-01-11T17:29:17.426Z,12.20
2019-01-11T17:30:23.021Z,14.40
2019-01-11T17:31:29.932Z,13.10
2019-01-11T17:32:40.553Z,14.30
2019-01-11T17:33:43.840Z,16.10
2019-01-11T17:34:50.573Z,16.10
2019-01-11T17:35:57.611Z,13.00
2019-01-11T17:37:04.374Z,14.80
2019-01-11T17:38:11.216Z,13.50
2019-01-11T17:39:18.019Z,14.70
2019-01-11T17:40:24.767Z,13.80
2019-01-11T17:41:31.508Z,15.00
2019-01-11T17:42:38.281Z,12.10
2019-01-11T17:43:45.180Z,14.20
2019-01-11T17:44:51.967Z,15.30
2019-01-11T17:45:58.735Z,15.90
2019-01-11T17:47:05.503Z,15.20
2019-01-11T17:48:12.249Z,12.90
2019-01-11T17:49:19.036Z,14.40
2019-01-11T17:50:25.946Z,13.60
2019-01-11T17:51:32.671Z,14.00
2019-01-11T17:52:39.433Z,12.80
2019-01-11T17:53:46.192Z,13.90
2019-01-11T17:54:52.937Z,16.10
2019-01-11T17:55:59.685Z,12.20
2019-01-11T17:57:06.536Z,11.10
2019-01-11T17:58:13.330Z,14.60
2019-01-11T17:59:20.378Z,13.20
2019-01-11T18:00:26.944Z,11.10
2019-01-11T18:01:33.677Z,12.70
2019-01-11T18:02:40.480Z,12.60
2019-01-11T18:03:47.468Z,10.40
2019-01-11T18:04:54.221Z,16.90
2019-01-11T18:06:00.965Z,15.80
2019-01-11T18:07:07.836Z,16.70
2019-01-11T18:08:14.652Z,16.40
2019-01-11T18:09:21.512Z,12.30
2019-01-11T18:10:28.284Z,13.90
2019-01-11T18:11:35.044Z,12.30
2019-01-11T18:12:41.863Z,10.40
2019-01-11T18:13:48.664Z,11.60
2019-01-11T18:14:55.440Z,11.00
2019-01-11T18:16:02.205Z,11.30
2019-01-11T18:17:09.049Z,11.10
2019-01-11T18:18:15.780Z,15.10
2019-01-11T18:19:22.665Z,12.90
2019-01-11T18:20:29.480Z,12.80
2019-01-11T18:21:36.302Z,12.30
2019-01-11T18:22:43.053Z,12.50
2019-01-11T18:23:49.876Z,10.60
2019-01-11T18:24:56.673Z,13.30
2019-01-11T18:26:03.409Z,16.50
2019-01-11T18:27:10.280Z,23.70
2019-01-11T18:28:17.016Z,24.00
2019-01-11T18:29:23.771Z,25.30
2019-01-11T18:30:30.516Z,25.00
2019-01-11T18:31:37.282Z,19.30
2019-01-11T18:32:44.041Z,36.30
2019-01-11T18:33:50.915Z,30.20
2019-01-11T18:34:58.927Z,27.80
2019-01-11T18:36:04.647Z,22.10
2019-01-11T18:37:11.455Z,24.60
2019-01-11T18:38:18.247Z,50.60
2019-01-11T18:39:24.982Z,40.70
2019-01-11T18:40:31.841Z,24.00
2019-01-11T18:41:38.619Z,21.70
2019-01-11T18:42:45.363Z,25.10
2019-01-11T18:43:52.196Z,29.40
2019-01-11T18:44:58.975Z,35.60
2019-01-11T18:46:05.791Z,25.80
2019-01-11T18:47:12.592Z,18.70
2019-01-11T18:48:22.958Z,18.00
2019-01-11T18:49:26.392Z,18.60
2019-01-11T18:50:33.463Z,45.70
2019-01-11T18:51:40.449Z,44.70
2019-01-11T18:52:47.414Z,39.90
2019-01-11T18:53:54.368Z,31.70
2019-01-11T18:55:01.292Z,26.50
2019-01-11T18:56:08.120Z,26.70
2019-01-11T18:57:16.322Z,26.70
2019-01-11T18:58:22.262Z,25.80
2019-01-11T18:59:29.091Z,27.80
2019-01-11T19:00:35.855Z,25.00
2019-01-11T19:01:42.601Z,19.60